Time;durP1;ratioP1;P1;durP2;ratioP2;P2;SDS_P1;SDS_P2;PMS_P1;PMS_P2;Temp;Humidity;BMP_temperature;BMP_pressure;BME280_temperature;BME280_humidity;BME280_pressure;Samples;Min_cycle;Max_cycle;Signal;HPM_P1;HPM_P2
2022/01/05 00:00:51;;;;;;;5.73;2.90;;;6.20;99.90;;;;;;4358488;28;656816;-75
2022/01/05 00:03:39;;;;;;;3.77;2.70;;;6.10;99.90;;;;;;4374822;28;656809;-73
2022/01/05 00:06:28;;;;;;;8.40;2.87;;;6.10;99.90;;;;;;4367010;28;656569;-74
2022/01/05 00:09:16;;;;;;;6.63;3.10;;;6.10;99.90;;;;;;4359831;28;656672;-75
2022/01/05 00:12:05;;;;;;;5.90;3.10;;;6.00;99.90;;;;;;4368721;28;658495;-76
2022/01/05 00:14:52;;;;;;;7.03;3.20;;;6.10;99.90;;;;;;4342764;28;657663;-74
2022/01/05 00:17:41;;;;;;;4.73;2.87;;;6.00;99.90;;;;;;4385867;28;656804;-74
2022/01/05 00:20:30;;;;;;;6.00;3.70;;;6.00;99.90;;;;;;4391669;28;657161;-74
2022/01/05 00:23:19;;;;;;;4.27;2.80;;;6.00;99.90;;;;;;4358667;28;657119;-73
2022/01/05 00:26:07;;;;;;;5.27;3.10;;;5.90;99.90;;;;;;4364010;28;656582;-74
2022/01/05 00:28:54;;;;;;;6.53;3.20;;;5.90;99.90;;;;;;4381043;28;656764;-73
2022/01/05 00:31:42;;;;;;;4.67;2.57;;;5.80;99.90;;;;;;4355589;28;656507;-72
2022/01/05 00:34:29;;;;;;;5.80;3.20;;;5.80;99.90;;;;;;4372933;28;656720;-73
2022/01/05 00:37:17;;;;;;;4.67;2.93;;;5.70;99.90;;;;;;4359823;28;656689;-73
2022/01/05 00:40:07;;;;;;;6.37;3.40;;;5.70;99.90;;;;;;4394110;28;656810;-74
2022/01/05 00:42:54;;;;;;;5.83;3.33;;;5.70;99.90;;;;;;4369021;28;656489;-73
2022/01/05 00:45:42;;;;;;;6.87;2.93;;;5.70;99.90;;;;;;4372468;28;657214;-72
2022/01/05 00:48:32;;;;;;;5.63;3.20;;;5.70;99.90;;;;;;4390657;28;657280;-72
2022/01/05 00:51:20;;;;;;;9.67;4.13;;;5.70;99.90;;;;;;4367801;28;656574;-72
2022/01/05 00:54:07;;;;;;;8.17;4.67;;;5.70;99.90;;;;;;4367687;28;657697;-73
2022/01/05 00:56:56;;;;;;;8.83;4.30;;;5.80;99.90;;;;;;4394602;28;656108;-74
2022/01/05 00:59:44;;;;;;;9.63;4.73;;;5.80;99.90;;;;;;4355306;28;657604;-73
2022/01/05 01:02:31;;;;;;;8.13;4.67;;;5.80;99.90;;;;;;4352981;28;656807;-72
2022/01/05 01:05:18;;;;;;;9.47;4.93;;;5.70;99.90;;;;;;4397214;28;657304;-73
2022/01/05 01:08:06;;;;;;;7.30;4.60;;;5.70;99.90;;;;;;4378063;28;656337;-74
2022/01/05 01:10:54;;;;;;;8.23;4.30;;;5.70;99.90;;;;;;4383149;28;657189;-74
2022/01/05 01:13:43;;;;;;;9.40;4.87;;;5.70;99.90;;;;;;4359950;28;657126;-73
2022/01/05 01:16:30;;;;;;;9.10;5.33;;;5.70;99.90;;;;;;4362341;28;656538;-74
2022/01/05 01:19:18;;;;;;;8.53;4.87;;;5.70;99.90;;;;;;4383977;28;656940;-75
2022/01/05 01:22:06;;;;;;;9.38;5.20;;;5.70;99.90;;;;;;4371370;28;656249;-75
2022/01/05 01:24:53;;;;;;;9.07;4.77;;;5.70;99.90;;;;;;4381888;28;657206;-73
2022/01/05 01:27:42;;;;;;;8.93;4.80;;;5.70;99.90;;;;;;4367723;28;656594;-73
2022/01/05 01:30:32;;;;;;;9.07;4.77;;;5.70;99.90;;;;;;4392150;28;657038;-75
2022/01/05 01:33:20;;;;;;;7.68;4.90;;;5.60;99.90;;;;;;4401123;28;656062;-74
2022/01/05 01:36:07;;;;;;;7.90;4.60;;;5.60;99.90;;;;;;4375369;28;657726;-72
2022/01/05 01:38:56;;;;;;;8.53;4.40;;;5.60;99.90;;;;;;4395849;28;656421;-73
2022/01/05 01:41:43;;;;;;;10.00;4.90;;;5.60;99.90;;;;;;4380332;28;658352;-73
2022/01/05 01:44:31;;;;;;;13.60;5.23;;;5.50;99.90;;;;;;4376400;28;657599;-75
2022/01/05 01:47:20;;;;;;;10.07;5.03;;;5.60;99.90;;;;;;4393191;28;657306;-75
2022/01/05 01:50:08;;;;;;;9.50;5.33;;;5.50;99.90;;;;;;4368526;28;658589;-74
2022/01/05 01:52:56;;;;;;;9.13;5.40;;;5.50;99.90;;;;;;4379313;28;657312;-75
2022/01/05 01:55:43;;;;;;;14.00;7.47;;;5.50;99.90;;;;;;4379836;28;657623;-75
2022/01/05 01:58:33;;;;;;;12.70;7.43;;;5.50;99.90;;;;;;4362263;28;658128;-74
2022/01/05 02:01:21;;;;;;;18.23;8.47;;;5.50;99.90;;;;;;4365712;28;657437;-74
2022/01/05 02:04:09;;;;;;;19.87;10.00;;;5.50;99.90;;;;;;4387608;28;658411;-74
2022/01/05 02:06:57;;;;;;;19.83;9.63;;;5.50;99.90;;;;;;4367020;28;659902;-74
2022/01/05 02:09:44;;;;;;;21.23;10.30;;;5.50;99.90;;;;;;4396213;28;657234;-75
2022/01/05 02:12:32;;;;;;;22.93;11.20;;;5.50;99.90;;;;;;4369856;28;659495;-75
2022/01/05 02:15:20;;;;;;;19.70;9.67;;;5.50;99.90;;;;;;4391906;28;659203;-75
2022/01/05 02:18:21;;;;;;;19.40;10.57;;;5.50;99.90;;;;;;4361693;28;658430;-75
2022/01/05 02:21:11;;;;;;;15.63;8.83;;;5.50;99.90;;;;;;4354875;28;659595;-73
2022/01/05 02:23:59;;;;;;;17.77;7.60;;;5.50;99.90;;;;;;4368275;28;658965;-74
2022/01/05 02:26:46;;;;;;;19.67;10.03;;;5.40;99.90;;;;;;4370203;28;657530;-73
2022/01/05 02:29:34;;;;;;;18.93;9.97;;;5.40;99.90;;;;;;4376940;28;659576;-74
2022/01/05 02:32:21;;;;;;;17.23;9.70;;;5.40;99.90;;;;;;4354025;28;657940;-74
2022/01/05 02:35:10;;;;;;;20.50;10.03;;;5.30;99.90;;;;;;4399181;28;658105;-74
2022/01/05 02:37:59;;;;;;;18.50;9.57;;;5.30;99.90;;;;;;4374327;28;658741;-73
2022/01/05 02:40:46;;;;;;;17.50;9.20;;;5.30;99.90;;;;;;4369587;28;658029;-74
2022/01/05 02:43:34;;;;;;;17.47;9.00;;;5.30;99.90;;;;;;4377680;28;657389;-75
2022/01/05 02:46:23;;;;;;;15.47;9.03;;;5.20;99.90;;;;;;4366084;28;657650;-75
2022/01/05 02:49:11;;;;;;;13.10;8.03;;;5.20;99.90;;;;;;4378890;28;657596;-76
2022/01/05 02:52:00;;;;;;;13.70;8.40;;;5.20;99.90;;;;;;4394740;28;658532;-74
2022/01/05 02:54:50;;;;;;;14.30;8.30;;;5.20;99.90;;;;;;4369407;28;658942;-75
2022/01/05 02:57:39;;;;;;;16.73;8.77;;;5.20;99.90;;;;;;4371368;28;658260;-75
2022/01/05 03:00:28;;;;;;;15.60;8.70;;;5.10;99.90;;;;;;4372449;28;657654;-74
2022/01/05 03:03:17;;;;;;;14.53;8.67;;;5.10;99.90;;;;;;4386709;28;658402;-75
2022/01/05 03:06:05;;;;;;;16.00;9.20;;;5.10;99.90;;;;;;4398827;28;657544;-74
2022/01/05 03:08:53;;;;;;;17.33;9.93;;;5.10;99.90;;;;;;4374528;28;658433;-75
2022/01/05 03:11:43;;;;;;;20.60;10.37;;;5.00;99.90;;;;;;4370675;28;658390;-75
2022/01/05 03:14:31;;;;;;;16.97;10.03;;;5.00;99.90;;;;;;4370788;28;659583;-76
2022/01/05 03:17:20;;;;;;;22.27;11.60;;;5.00;99.90;;;;;;4387227;28;659750;-75
2022/01/05 03:20:08;;;;;;;20.67;11.30;;;5.00;99.90;;;;;;4368852;28;659339;-75
2022/01/05 03:22:56;;;;;;;20.47;11.47;;;5.00;99.90;;;;;;4374136;28;658678;-75
2022/01/05 03:25:43;;;;;;;21.50;12.43;;;5.00;99.90;;;;;;4397548;28;659805;-74
2022/01/05 03:28:32;;;;;;;18.23;11.27;;;5.00;99.90;;;;;;4371809;28;658709;-75
2022/01/05 03:31:20;;;;;;;24.17;12.50;;;5.00;99.90;;;;;;4394818;28;658812;-74
2022/01/05 03:34:08;;;;;;;20.13;12.20;;;5.00;99.90;;;;;;4371940;28;659303;-74
2022/01/05 03:36:56;;;;;;;21.90;12.97;;;5.00;99.90;;;;;;4375446;28;659175;-75
2022/01/05 03:39:44;;;;;;;22.97;12.43;;;5.00;99.90;;;;;;4411216;28;659368;-75
2022/01/05 03:42:32;;;;;;;31.73;14.70;;;5.00;99.90;;;;;;4392792;28;658576;-74
2022/01/05 03:45:21;;;;;;;22.57;13.10;;;5.00;99.90;;;;;;4413495;28;658938;-74
2022/01/05 03:48:09;;;;;;;30.50;13.40;;;5.00;99.90;;;;;;4372394;28;659263;-75
2022/01/05 03:50:57;;;;;;;22.60;14.27;;;5.00;99.90;;;;;;4374475;28;658450;-75
2022/01/05 03:53:44;;;;;;;29.13;14.50;;;5.00;99.90;;;;;;4399565;28;658584;-74
2022/01/05 03:56:32;;;;;;;34.23;14.93;;;5.00;99.90;;;;;;4378290;28;658829;-76
2022/01/05 03:59:19;;;;;;;28.07;14.93;;;5.10;99.90;;;;;;4403986;28;658637;-75
2022/01/05 04:02:08;;;;;;;26.10;14.97;;;5.10;99.90;;;;;;4389470;28;658445;-74
2022/01/05 04:04:56;;;;;;;29.30;15.17;;;5.10;99.90;;;;;;4390801;28;659416;-75
2022/01/05 04:07:44;;;;;;;26.93;14.93;;;5.10;99.90;;;;;;4410048;28;659836;-75
2022/01/05 04:10:31;;;;;;;32.87;16.00;;;5.10;99.90;;;;;;4386378;28;659081;-75
2022/01/05 04:13:19;;;;;;;24.30;13.77;;;5.10;99.90;;;;;;4413548;28;660378;-75
2022/01/05 04:16:07;;;;;;;24.13;12.87;;;5.00;99.90;;;;;;4390304;28;658987;-74
2022/01/05 04:18:56;;;;;;;28.07;13.00;;;4.90;99.90;;;;;;4412946;28;658621;-75
2022/01/05 04:21:43;;;;;;;24.53;13.70;;;4.90;99.90;;;;;;4382980;28;659097;-75
2022/01/05 04:24:31;;;;;;;25.30;14.90;;;4.90;99.90;;;;;;4388213;28;658842;-75
2022/01/05 04:27:19;;;;;;;26.80;14.77;;;4.90;99.90;;;;;;4403759;28;659290;-74
2022/01/05 04:30:07;;;;;;;30.00;15.47;;;4.90;99.90;;;;;;4361090;28;659239;-75
2022/01/05 04:32:56;;;;;;;32.80;15.50;;;4.90;99.90;;;;;;4404887;28;658414;-75
2022/01/05 04:35:45;;;;;;;24.47;14.73;;;4.90;99.90;;;;;;4407836;28;659681;-74
2022/01/05 04:38:33;;;;;;;25.60;14.13;;;4.90;99.90;;;;;;4383605;28;659924;-75
2022/01/05 04:41:21;;;;;;;26.60;14.63;;;4.90;99.90;;;;;;4365004;28;658929;-75
2022/01/05 04:44:14;;;;;;;28.88;15.60;;;4.80;99.90;;;;;;4385955;28;660518;-75
2022/01/05 04:47:07;;;;;;;30.63;17.23;;;4.80;99.90;;;;;;4370965;28;658887;-75
2022/01/05 04:49:55;;;;;;;27.60;15.40;;;4.80;99.90;;;;;;4369019;28;658754;-75
2022/01/05 04:52:44;;;;;;;31.60;16.60;;;4.80;99.90;;;;;;4379651;28;658393;-75
2022/01/05 04:55:32;;;;;;;25.03;14.90;;;4.90;99.90;;;;;;4376940;28;658792;-75
2022/01/05 04:58:19;;;;;;;29.83;16.73;;;4.90;99.90;;;;;;4405531;28;658540;-75
2022/01/05 05:01:07;;;;;;;31.57;17.20;;;4.90;99.90;;;;;;4380402;28;659863;-75
2022/01/05 05:03:55;;;;;;;33.50;18.47;;;4.80;99.90;;;;;;4395636;28;658735;-74
2022/01/05 05:06:46;;;;;;;32.83;17.83;;;4.80;99.90;;;;;;4370429;28;660044;-75
2022/01/05 05:09:40;;;;;;;31.30;17.40;;;4.90;99.90;;;;;;4361385;28;659208;-75
2022/01/05 05:12:27;;;;;;;32.30;17.47;;;4.80;99.90;;;;;;4355245;28;658939;-75
2022/01/05 05:15:15;;;;;;;38.20;19.97;;;4.80;99.90;;;;;;4378184;28;658871;-75
2022/01/05 05:18:02;;;;;;;40.07;20.27;;;4.80;99.90;;;;;;4366714;28;659399;-75
2022/01/05 05:20:50;;;;;;;32.93;16.10;;;4.80;99.90;;;;;;4396443;28;658869;-75
2022/01/05 05:23:38;;;;;;;32.70;15.87;;;4.80;99.90;;;;;;4398841;28;659994;-76
2022/01/05 05:26:27;;;;;;;33.60;18.13;;;4.80;99.90;;;;;;4368358;28;658758;-75
2022/01/05 05:29:15;;;;;;;38.10;19.57;;;4.80;99.90;;;;;;4384672;28;659625;-75
2022/01/05 05:32:03;;;;;;;32.60;18.13;;;4.80;99.90;;;;;;4394108;28;660355;-75
2022/01/05 05:34:51;;;;;;;34.10;18.97;;;4.80;99.90;;;;;;4364894;28;660202;-75
2022/01/05 05:37:38;;;;;;;41.27;21.20;;;4.80;99.90;;;;;;4398088;28;660313;-75
2022/01/05 05:40:26;;;;;;;42.90;21.07;;;4.80;99.90;;;;;;4372597;28;660746;-75
2022/01/05 05:43:15;;;;;;;32.03;18.07;;;4.80;99.90;;;;;;4390798;28;660128;-75
2022/01/05 05:46:04;;;;;;;43.80;22.02;;;4.80;99.90;;;;;;4354056;28;660660;-75
2022/01/05 05:48:52;;;;;;;37.70;17.77;;;4.80;99.90;;;;;;4367916;28;660063;-75
2022/01/05 05:51:39;;;;;;;111.70;18.90;;;4.80;99.90;;;;;;4384864;28;659940;-75
2022/01/05 05:54:27;;;;;;;34.07;16.63;;;4.70;99.90;;;;;;4368916;28;660556;-75
2022/01/05 05:57:14;;;;;;;32.73;17.93;;;4.70;99.90;;;;;;4385689;28;658960;-75
2022/01/05 06:00:04;;;;;;;59.17;20.50;;;4.70;99.90;;;;;;4362064;28;659963;-74
2022/01/05 06:02:52;;;;;;;42.03;20.47;;;4.60;99.90;;;;;;4363730;28;659581;-74
2022/01/05 06:05:39;;;;;;;50.50;22.47;;;4.60;99.90;;;;;;4395870;28;659458;-75
2022/01/05 06:08:27;;;;;;;46.27;21.83;;;4.60;99.90;;;;;;4374554;28;660508;-75
2022/01/05 06:11:14;;;;;;;62.40;24.20;;;4.60;99.90;;;;;;4396584;28;659564;-75
2022/01/05 06:14:02;;;;;;;277.23;50.57;;;4.60;99.90;;;;;;4373378;28;659845;-74
2022/01/05 06:16:51;;;;;;;168.20;40.53;;;4.60;99.90;;;;;;4395688;28;660402;-74
2022/01/05 06:19:38;;;;;;;192.60;43.50;;;4.60;99.90;;;;;;4363966;28;661550;-75
2022/01/05 06:22:26;;;;;;;291.30;46.33;;;4.60;99.90;;;;;;4372508;28;660826;-76
2022/01/05 06:25:14;;;;;;;270.93;52.77;;;4.60;99.90;;;;;;4387106;28;661080;-74
2022/01/05 06:28:01;;;;;;;206.43;45.63;;;4.60;99.90;;;;;;4371625;28;660836;-75
2022/01/05 06:30:49;;;;;;;284.33;103.80;;;4.70;99.90;;;;;;4389001;28;660620;-74
2022/01/05 06:33:38;;;;;;;127.88;42.20;;;4.70;99.90;;;;;;4367884;28;661808;-73
2022/01/05 06:36:26;;;;;;;147.68;48.38;;;4.70;99.90;;;;;;4363306;28;660547;-74
2022/01/05 06:39:13;;;;;;;133.50;36.60;;;4.70;99.90;;;;;;4395007;28;662245;-74
2022/01/05 06:42:01;;;;;;;123.43;38.03;;;4.60;99.90;;;;;;4376916;28;660810;-75
2022/01/05 06:44:48;;;;;;;71.93;29.23;;;4.70;99.90;;;;;;4391318;28;661014;-75
2022/01/05 06:47:36;;;;;;;70.67;28.63;;;4.70;99.90;;;;;;4371150;28;659401;-74
2022/01/05 06:50:25;;;;;;;80.03;29.37;;;4.70;99.90;;;;;;4390202;28;660200;-74
2022/01/05 06:53:13;;;;;;;122.07;37.57;;;4.70;99.90;;;;;;4373225;28;660701;-74
2022/01/05 06:56:01;;;;;;;119.33;38.30;;;4.70;99.90;;;;;;4372252;28;661545;-74
2022/01/05 06:58:48;;;;;;;120.37;42.20;;;4.70;99.90;;;;;;4390470;28;661232;-75
2022/01/05 07:01:54;;;;;;;759.60;105.53;;;4.70;99.90;;;;;;4372125;28;661129;-75
2022/01/05 07:04:42;;;;;;;706.20;103.27;;;4.70;99.90;;;;;;4365297;28;661997;-74
2022/01/05 07:07:30;;;;;;;461.57;77.57;;;4.70;99.90;;;;;;4386976;28;661961;-74
2022/01/05 07:10:18;;;;;;;185.63;37.17;;;4.70;99.90;;;;;;4367766;28;662176;-74
2022/01/05 07:13:18;;;;;;;147.57;36.13;;;4.70;99.90;;;;;;4365616;28;660545;-75
2022/01/05 07:16:06;;;;;;;144.17;36.47;;;4.70;99.90;;;;;;4333440;28;660728;-74
2022/01/05 07:18:53;;;;;;;103.40;32.53;;;4.70;99.90;;;;;;4388646;28;661185;-74
2022/01/05 07:21:41;;;;;;;162.23;38.83;;;4.70;99.90;;;;;;4367225;28;660679;-75
2022/01/05 07:24:30;;;;;;;233.63;46.30;;;4.70;99.90;;;;;;4393591;28;661996;-74
2022/01/05 07:27:19;;;;;;;126.23;38.40;;;4.70;99.90;;;;;;4369195;28;660893;-74
2022/01/05 07:30:07;;;;;;;120.50;39.13;;;4.70;99.90;;;;;;4372080;28;660619;-74
2022/01/05 07:32:55;;;;;;;120.27;36.37;;;4.70;99.90;;;;;;4394523;28;661124;-74
2022/01/05 07:35:42;;;;;;;163.03;40.33;;;4.80;99.90;;;;;;4368004;28;661230;-75
2022/01/05 07:38:30;;;;;;;187.63;43.47;;;4.80;99.90;;;;;;4394096;28;660437;-75
2022/01/05 07:41:19;;;;;;;160.63;44.43;;;4.80;99.90;;;;;;4379067;28;662141;-74
2022/01/05 07:44:07;;;;;;;209.83;40.10;;;4.80;99.90;;;;;;4381802;28;660597;-77
2022/01/05 07:46:54;;;;;;;118.60;40.53;;;4.80;99.90;;;;;;4399361;28;660751;-77
2022/01/05 07:49:42;;;;;;;143.13;38.70;;;4.80;99.90;;;;;;4381100;28;660730;-77
2022/01/05 07:52:29;;;;;;;132.47;38.87;;;4.80;99.90;;;;;;4376068;28;661461;-76
2022/01/05 07:55:17;;;;;;;186.83;39.20;;;4.80;99.90;;;;;;4368953;28;663326;-76
2022/01/05 07:58:06;;;;;;;160.40;39.40;;;4.80;99.90;;;;;;4362657;28;660992;-73
2022/01/05 08:00:54;;;;;;;173.37;40.40;;;4.80;99.90;;;;;;4354333;28;661669;-76
2022/01/05 08:03:41;;;;;;;129.20;37.80;;;4.80;99.90;;;;;;4355193;28;661279;-77
2022/01/05 08:06:29;;;;;;;84.47;31.80;;;4.80;99.90;;;;;;4374318;28;661487;-76
2022/01/05 08:09:16;;;;;;;95.03;33.93;;;4.80;99.90;;;;;;4355018;28;659883;-77
2022/01/05 08:12:04;;;;;;;105.77;34.60;;;4.90;99.90;;;;;;4381104;28;660522;-77
2022/01/05 08:14:53;;;;;;;124.00;34.57;;;4.90;99.90;;;;;;4368049;28;660972;-77
2022/01/05 08:17:41;;;;;;;92.27;32.07;;;5.00;99.90;;;;;;4374110;28;660960;-76
2022/01/05 08:20:29;;;;;;;78.57;29.20;;;5.00;99.90;;;;;;4401816;28;660751;-77
2022/01/05 08:23:17;;;;;;;61.80;27.83;;;5.00;99.90;;;;;;4369874;28;659867;-78
2022/01/05 08:26:08;;;;;;;52.33;23.57;;;5.00;99.90;;;;;;4409693;28;660120;-76
2022/01/05 08:28:56;;;;;;;46.20;23.20;;;5.00;99.90;;;;;;4390024;28;659750;-77
2022/01/05 08:31:45;;;;;;;40.30;19.70;;;4.90;99.90;;;;;;4387768;28;660002;-76
2022/01/05 08:34:33;;;;;;;37.97;18.80;;;5.00;99.90;;;;;;4373449;28;660153;-76
2022/01/05 08:37:21;;;;;;;42.40;20.63;;;5.00;99.90;;;;;;4378229;28;660685;-77
2022/01/05 08:40:10;;;;;;;35.57;17.07;;;5.00;99.90;;;;;;4409078;28;660894;-77
2022/01/05 08:42:57;;;;;;;29.67;14.27;;;5.00;99.90;;;;;;4387456;28;661171;-76
2022/01/05 08:45:45;;;;;;;29.13;13.93;;;5.00;99.90;;;;;;4413515;28;659877;-77
2022/01/05 08:48:36;;;;;;;27.00;14.07;;;5.00;99.90;;;;;;4382369;28;660615;-77
2022/01/05 08:51:23;;;;;;;23.27;11.87;;;5.00;99.90;;;;;;4356709;28;660594;-77
2022/01/05 08:54:11;;;;;;;20.77;10.90;;;5.00;99.90;;;;;;4356053;28;659401;-76
2022/01/05 08:56:58;;;;;;;21.33;10.40;;;4.90;99.90;;;;;;4375561;28;660147;-77
2022/01/05 08:59:47;;;;;;;18.47;7.27;;;5.00;99.90;;;;;;4356295;28;659488;-77
2022/01/05 09:02:35;;;;;;;20.17;7.93;;;4.90;99.90;;;;;;4380313;28;659302;-77
2022/01/05 09:05:24;;;;;;;15.20;8.20;;;4.90;99.90;;;;;;4358869;28;659218;-77
2022/01/05 09:08:12;;;;;;;18.40;8.80;;;4.80;99.90;;;;;;4373956;28;658455;-77
2022/01/05 09:11:00;;;;;;;19.43;9.00;;;4.80;99.90;;;;;;4396634;28;659047;-78
2022/01/05 09:13:47;;;;;;;18.67;8.50;;;4.80;99.90;;;;;;4367046;28;658682;-77
2022/01/05 09:16:35;;;;;;;23.83;10.10;;;4.70;99.90;;;;;;4397375;28;658422;-77
2022/01/05 09:19:22;;;;;;;16.70;8.87;;;4.70;99.90;;;;;;4368870;28;661060;-77
2022/01/05 09:22:12;;;;;;;17.07;8.20;;;4.70;99.90;;;;;;4396387;28;658337;-77
2022/01/05 09:24:59;;;;;;;19.50;9.17;;;4.60;99.90;;;;;;4365595;28;658721;-77
2022/01/05 09:27:47;;;;;;;25.47;10.60;;;4.70;99.90;;;;;;4362181;28;658958;-78
2022/01/05 09:30:35;;;;;;;20.47;9.87;;;4.70;99.90;;;;;;4398311;28;659417;-77
2022/01/05 09:33:23;;;;;;;21.50;10.43;;;4.70;99.90;;;;;;4374229;28;659938;-77
2022/01/05 09:36:16;;;;;;;21.33;10.50;;;4.70;99.90;;;;;;4376449;28;659883;-76
2022/01/05 09:42:10;;;;;;;16.27;8.27;;;4.70;99.90;;;;;;4363698;28;658828;-75
2022/01/05 09:44:57;;;;;;;18.67;8.37;;;4.60;99.90;;;;;;4373719;28;659721;-77
2022/01/05 09:48:01;;;;;;;18.17;8.77;;;4.60;99.90;;;;;;4386804;28;659054;-78
2022/01/05 09:50:51;;;;;;;18.37;9.03;;;4.60;99.90;;;;;;4372707;28;659494;-77
2022/01/05 09:53:39;;;;;;;18.00;8.60;;;4.70;99.90;;;;;;4363196;28;659596;-77
2022/01/05 09:56:29;;;;;;;19.17;10.03;;;4.70;99.90;;;;;;4376175;28;658978;-77
2022/01/05 09:59:17;;;;;;;20.13;9.57;;;4.60;99.90;;;;;;4364821;28;660559;-77
2022/01/05 10:02:05;;;;;;;17.90;7.57;;;4.60;99.90;;;;;;4395283;28;659283;-79
2022/01/05 10:04:52;;;;;;;17.87;8.53;;;4.60;99.90;;;;;;4376244;28;659946;-76
2022/01/05 10:07:41;;;;;;;12.40;5.83;;;4.60;99.90;;;;;;4399691;28;658782;-79
2022/01/05 10:10:29;;;;;;;16.40;7.50;;;4.60;99.90;;;;;;4376007;28;659839;-77
2022/01/05 10:13:18;;;;;;;13.80;6.20;;;4.60;99.90;;;;;;4376666;28;659594;-78
2022/01/05 10:16:07;;;;;;;17.23;7.47;;;4.60;99.90;;;;;;4375996;28;658885;-78
2022/01/05 10:18:56;;;;;;;14.40;6.90;;;4.60;99.90;;;;;;4392267;28;658995;-78
2022/01/05 10:21:43;;;;;;;14.30;6.03;;;4.60;99.90;;;;;;4392248;28;658682;-76
2022/01/05 10:24:43;;;;;;;15.37;7.20;;;4.70;99.90;;;;;;4369883;28;658597;-76
2022/01/05 10:27:31;;;;;;;16.20;7.83;;;4.70;99.90;;;;;;4374804;28;658827;-76
2022/01/05 10:30:20;;;;;;;16.10;8.00;;;4.80;99.90;;;;;;4398220;28;659476;-76
2022/01/05 10:33:08;;;;;;;18.10;8.63;;;4.80;99.90;;;;;;4369516;28;658918;-75
2022/01/05 10:35:56;;;;;;;17.13;8.57;;;4.90;99.90;;;;;;4375402;28;658497;-76
2022/01/05 10:38:54;;;;;;;20.87;10.00;;;4.90;99.90;;;;;;4407388;28;659601;-76
2022/01/05 10:41:43;;;;;;;20.63;10.43;;;4.90;99.90;;;;;;4369462;28;660010;-76
2022/01/05 10:44:31;;;;;;;23.53;10.03;;;4.90;99.90;;;;;;4374051;28;659597;-77
2022/01/05 10:47:20;;;;;;;19.50;10.27;;;4.90;99.90;;;;;;4393329;28;660367;-76
2022/01/05 10:50:11;;;;;;;22.80;11.10;;;5.00;99.90;;;;;;4371112;28;660535;-75
2022/01/05 10:52:59;;;;;;;23.27;11.90;;;5.00;99.90;;;;;;4377212;28;660423;-75
2022/01/05 10:55:47;;;;;;;20.77;8.73;;;5.00;99.90;;;;;;4401170;28;660209;-77
2022/01/05 10:58:42;;;;;;;22.37;10.50;;;5.00;99.90;;;;;;4408192;28;658980;-76
2022/01/05 11:01:31;;;;;;;19.92;10.90;;;5.00;99.90;;;;;;4381134;28;659737;-76
2022/01/05 11:04:21;;;;;;;16.77;7.73;;;5.00;99.90;;;;;;4400281;28;659776;-77
2022/01/05 11:07:09;;;;;;;18.90;9.68;;;5.00;99.90;;;;;;4383197;28;659710;-77
2022/01/05 11:09:57;;;;;;;23.47;10.90;;;5.00;99.90;;;;;;4390162;28;658639;-76
2022/01/05 11:12:46;;;;;;;22.57;10.47;;;5.00;99.90;;;;;;4412522;28;659476;-76
2022/01/05 11:15:35;;;;;;;23.05;10.80;;;5.00;99.90;;;;;;4389322;28;660688;-76
2022/01/05 11:18:22;;;;;;;24.40;11.60;;;5.00;99.90;;;;;;4379871;28;660447;-77
2022/01/05 11:21:12;;;;;;;29.30;10.87;;;5.00;99.90;;;;;;4403304;28;659932;-76
2022/01/05 11:24:00;;;;;;;21.37;10.43;;;5.00;99.90;;;;;;4405037;28;660037;-77
2022/01/05 11:26:47;;;;;;;16.33;9.03;;;5.00;99.90;;;;;;4385031;28;660971;-75
2022/01/05 11:29:35;;;;;;;18.87;8.70;;;5.00;99.90;;;;;;4407443;28;658377;-76
2022/01/05 11:32:26;;;;;;;18.17;8.37;;;5.00;99.90;;;;;;4390616;28;659875;-76
2022/01/05 11:35:13;;;;;;;14.13;8.60;;;5.00;99.90;;;;;;4386498;28;659901;-76
2022/01/05 11:38:02;;;;;;;15.23;7.17;;;5.00;99.90;;;;;;4385050;28;658940;-76
2022/01/05 11:40:51;;;;;;;16.43;8.87;;;4.90;99.90;;;;;;4409063;28;658667;-76
2022/01/05 11:43:40;;;;;;;17.40;8.00;;;5.00;99.90;;;;;;4390329;28;659358;-79
2022/01/05 11:46:30;;;;;;;18.27;8.37;;;5.00;99.90;;;;;;4378311;28;659437;-77
2022/01/05 11:49:25;;;;;;;17.92;8.57;;;5.00;99.90;;;;;;4390452;28;659901;-77
2022/01/05 11:52:13;;;;;;;17.50;9.30;;;4.90;99.90;;;;;;4389009;28;659132;-78
2022/01/05 11:55:06;;;;;;;13.70;7.67;;;4.90;99.90;;;;;;4391232;28;658938;-77
2022/01/05 11:58:16;;;;;;;15.77;8.70;;;4.90;99.90;;;;;;4386281;28;660007;-77
2022/01/05 12:01:23;;;;;;;16.20;7.83;;;4.90;99.90;;;;;;4386298;28;659495;-80
2022/01/05 12:04:14;;;;;;;18.10;9.57;;;4.90;99.90;;;;;;4375815;28;658835;-76
2022/01/05 12:07:09;;;;;;;19.23;9.47;;;4.90;99.90;;;;;;4389663;28;658532;-76
2022/01/05 12:09:56;;;;;;;25.03;10.00;;;4.90;99.90;;;;;;4360167;28;659070;-76
2022/01/05 12:12:56;;;;;;;19.53;9.60;;;4.90;99.90;;;;;;4408564;28;660353;-77
2022/01/05 12:15:50;;;;;;;20.97;10.00;;;4.90;99.90;;;;;;4381945;28;658892;-76
2022/01/05 12:18:38;;;;;;;16.83;8.70;;;4.90;99.90;;;;;;4362820;28;660887;-75
2022/01/05 12:21:41;;;;;;;19.83;9.50;;;4.90;99.90;;;;;;4391975;28;658680;-77
2022/01/05 12:25:04;;;;;;;16.90;8.43;;;5.00;99.90;;;;;;4388657;28;659343;-79
2022/01/05 12:28:02;;;;;;;18.43;9.40;;;5.00;99.90;;;;;;4365295;28;658696;-77
2022/01/05 12:30:50;;;;;;;20.00;9.83;;;5.00;99.90;;;;;;4388988;28;658227;-75
2022/01/05 12:33:42;;;;;;;17.50;9.43;;;5.00;99.90;;;;;;4382421;28;659889;-75
2022/01/05 12:36:34;;;;;;;17.57;8.70;;;5.00;99.90;;;;;;4390656;28;658866;-76
2022/01/05 12:39:21;;;;;;;24.57;9.97;;;5.00;99.90;;;;;;4390779;28;659148;-76
2022/01/05 12:42:22;;;;;;;19.20;9.80;;;5.00;99.90;;;;;;4410556;28;659827;-78
2022/01/05 12:45:30;;;;;;;20.00;9.43;;;5.00;99.90;;;;;;4388301;28;659245;-78
2022/01/05 12:48:54;;;;;;;16.50;9.00;;;5.10;99.90;;;;;;4387286;28;658995;-79
2022/01/05 12:51:44;;;;;;;18.17;8.90;;;5.10;99.90;;;;;;4388084;28;658714;-76
2022/01/05 12:54:41;;;;;;;17.33;9.70;;;5.10;99.90;;;;;;4390967;28;658839;-75
2022/01/05 12:57:29;;;;;;;15.53;8.40;;;5.10;99.90;;;;;;4391681;28;658577;-77
2022/01/05 13:00:18;;;;;;;17.00;8.90;;;5.10;99.90;;;;;;4391876;28;658358;-76
2022/01/05 13:03:06;;;;;;;18.30;8.50;;;5.20;99.90;;;;;;4391252;28;658457;-76
2022/01/05 13:05:54;;;;;;;20.13;9.43;;;5.20;99.90;;;;;;4409484;28;659488;-76
2022/01/05 13:08:47;;;;;;;20.83;9.02;;;5.20;99.90;;;;;;4384785;28;658940;-75
2022/01/05 13:11:37;;;;;;;17.63;9.73;;;5.20;99.90;;;;;;4389228;28;659085;-76
2022/01/05 13:14:26;;;;;;;21.27;9.53;;;5.20;99.90;;;;;;4387570;28;658577;-75
2022/01/05 13:17:17;;;;;;;19.17;9.43;;;5.20;99.90;;;;;;4391011;28;659421;-79
2022/01/05 13:20:08;;;;;;;20.13;8.17;;;5.20;99.90;;;;;;4387509;28;658993;-79
2022/01/05 13:22:56;;;;;;;18.13;9.43;;;5.20;99.90;;;;;;4391167;28;658617;-75
2022/01/05 13:25:44;;;;;;;16.80;9.33;;;5.20;99.90;;;;;;4412994;28;659612;-76
2022/01/05 13:28:38;;;;;;;16.43;9.37;;;5.20;99.90;;;;;;4391841;28;658482;-76
2022/01/05 13:31:26;;;;;;;14.27;7.80;;;5.20;99.90;;;;;;4391406;28;658603;-78
2022/01/05 13:34:15;;;;;;;15.07;7.53;;;5.20;99.90;;;;;;4413412;28;660204;-78
2022/01/05 13:37:03;;;;;;;19.93;10.50;;;5.20;99.90;;;;;;4387160;28;659077;-76
2022/01/05 13:39:51;;;;;;;20.23;10.77;;;5.20;99.90;;;;;;4388949;28;659960;-76
2022/01/05 13:42:41;;;;;;;20.20;8.70;;;5.20;99.90;;;;;;4412664;28;660116;-76
2022/01/05 13:45:30;;;;;;;19.35;11.00;;;5.20;99.90;;;;;;4390126;28;659404;-76
2022/01/05 13:48:22;;;;;;;20.40;10.50;;;5.20;99.90;;;;;;4368287;28;660502;-78
2022/01/05 13:51:11;;;;;;;22.57;11.87;;;5.20;99.90;;;;;;4370719;28;659253;-75
2022/01/05 13:53:59;;;;;;;23.63;11.77;;;5.20;99.90;;;;;;4383753;28;660578;-76
2022/01/05 13:56:47;;;;;;;20.07;11.43;;;5.20;99.90;;;;;;4389275;28;660359;-76
2022/01/05 13:59:39;;;;;;;27.43;12.40;;;5.30;99.90;;;;;;4407231;28;659748;-76
2022/01/05 14:02:28;;;;;;;21.60;11.13;;;5.30;99.90;;;;;;4366183;28;660513;-75
2022/01/05 14:05:15;;;;;;;17.57;10.30;;;5.20;99.90;;;;;;4397682;28;659880;-77
2022/01/05 14:08:06;;;;;;;21.27;12.37;;;5.30;99.90;;;;;;4374712;28;661157;-75
2022/01/05 14:11:02;;;;;;;23.70;12.18;;;5.20;99.90;;;;;;4372737;28;661194;-75
2022/01/05 14:13:51;;;;;;;27.33;11.90;;;5.20;99.90;;;;;;4368890;28;659952;-77
2022/01/05 14:16:39;;;;;;;20.37;10.90;;;5.20;99.90;;;;;;4368898;28;659782;-75
2022/01/05 14:19:29;;;;;;;20.23;9.83;;;5.20;99.90;;;;;;4370858;28;659936;-75
2022/01/05 14:22:19;;;;;;;16.00;8.60;;;5.20;99.90;;;;;;4376067;28;659960;-77
2022/01/05 14:25:09;;;;;;;21.63;9.53;;;5.20;99.90;;;;;;4376198;28;658675;-76